Flight Track Log - Related Links

Times and Time Zones

All times are in EDT time to prevent confusion due to time zone crossing. See the ASQ4976 flight status page for this flight to view local times or setup timezone preferences in your user account.

Time Position Orientation Groundspeed Altitude Reporting Facility
EDT Latitude Longitude Course Direction KTS MPH feet Rate Location/Type
Mon 10:06:51 AM 33.6333 -84.4000 90° East 179 206 1,900  Level Atlanta TRACON
Mon 10:07:39 AM 33.6333 -84.3333 90° East 242 278 2,700 1,944 Climbing Atlanta TRACON
Mon 10:08:39 AM 33.6333 -84.2333 90° East 280 322 5,400 2,650 Climbing Atlanta TRACON
Mon 10:09:39 AM 33.6333 -84.1500 90° East 292 336 8,000 2,289 Climbing Atlanta TRACON
Mon 10:09:55 AM 33.6336 -84.1211 89° East 293 337 8,300 1,895 Climbing Atlanta Center
Mon 10:10:55 AM 33.6772 -84.0439 56° Northeast 306 352 10,400 1,750 Climbing Atlanta Center
Mon 10:11:55 AM 33.7442 -83.9564 47° Northeast 327 376 11,800 1,750 Climbing Atlanta Center
Mon 10:12:55 AM 33.8169 -83.8664 46° Northeast 363 418 13,900 2,150 Climbing Atlanta Center
Mon 10:13:55 AM 33.8900 -83.7686 48° Northeast 384 442 16,100 2,050 Climbing Atlanta Center
Mon 10:14:55 AM 33.9586 -83.6706 50° Northeast 384 442 18,000 1,750 Climbing Atlanta Center
Mon 10:15:55 AM 34.0208 -83.5725 53° Northeast 390 449 19,600 1,600 Climbing Atlanta Center
Mon 10:16:55 AM 34.1017 -83.4417 53° Northeast 400 460 21,200 1,450 Climbing Atlanta Center
Mon 10:17:55 AM 34.1742 -83.3256 53° Northeast 422 486 22,500 1,300 Climbing Atlanta Center
Mon 10:18:55 AM 34.2486 -83.2044 53° Northeast 432 497 23,800 1,250 Climbing Atlanta Center
Mon 10:19:55 AM 34.3247 -83.0856 52° Northeast 443 510 25,000 600 Climbing Atlanta Center
Mon 10:20:55 AM 34.4053 -82.9536 53° Northeast 462 532 25,000  Level Atlanta Center
Mon 10:21:55 AM 34.4894 -82.8239 52° Northeast 482 555 25,000  Level Atlanta Center
Mon 10:22:55 AM 34.5736 -82.6867 53° Northeast 498 573 25,000  Level Atlanta Center
Mon 10:23:55 AM 34.6556 -82.5514 54° Northeast 503 579 25,000  Level Atlanta Center
Mon 10:24:55 AM 34.7394 -82.4108 54° Northeast 503 579 25,000  Level Atlanta Center
Mon 10:25:55 AM 34.8250 -82.2753 52° Northeast 508 585 25,000  Level Atlanta Center
Mon 10:26:55 AM 34.9086 -82.1342 54° Northeast 508 585 25,000  Level Atlanta Center
Mon 10:27:55 AM 34.9919 -82.0028 52° Northeast 501 577 25,000  Level Atlanta Center
Mon 10:28:55 AM 35.1008 -81.8961 39° Northeast 491 565 25,000  Level Atlanta Center
Mon 10:29:55 AM 35.2267 -81.8242 25° Northeast 486 559 25,000  Level Atlanta Center
Mon 10:30:55 AM 35.3361 -81.7578 26° Northeast 486 559 25,000  Level Atlanta Center
Mon 10:31:55 AM 35.4642 -81.6828 25° Northeast 491 565 25,000  Level Atlanta Center
Mon 10:32:55 AM 35.5919 -81.6100 25° Northeast 498 573 25,000  Level Atlanta Center
Mon 10:33:55 AM 35.7197 -81.5347 26° Northeast 498 573 25,000  Level Atlanta Center
Mon 10:34:55 AM 35.8600 -81.4508 26° Northeast 498 573 25,000  Level Atlanta Center
Mon 10:35:55 AM 35.9856 -81.3775 25° Northeast 498 573 25,000  Level Atlanta Center
Mon 10:36:55 AM 36.1111 -81.3014 26° Northeast 497 572 25,000  Level Atlanta Center
Mon 10:37:55 AM 36.2325 -81.2253 27° Northeast 497 572 25,000  Level Atlanta Center
Mon 10:38:55 AM 36.3561 -81.1539 25° Northeast 492 566 25,000  Level Atlanta Center
Mon 10:39:55 AM 36.4669 -81.0856 26° Northeast 487 560 25,000  Level Atlanta Center
Mon 10:40:55 AM 36.5883 -81.0139 25° Northeast 482 555 25,000  Level Atlanta Center
Mon 10:41:55 AM 36.7075 -80.9419 26° Northeast 482 555 25,000  Level Atlanta Center
Mon 10:42:55 AM 36.8367 -80.8642 26° Northeast 475 547 25,000  Level Atlanta Center
Mon 10:43:55 AM 36.9475 -80.7975 26° Northeast 469 540 25,000  Level Atlanta Center
Mon 10:46:03 AM 37.2142 -80.6775 20° North 464 534 25,000  Level Washington Center
Mon 10:47:04 AM 37.3414 -80.6336 15° North 464 534 25,000  Level Washington Center
Mon 10:48:04 AM 37.4683 -80.5925 14° North 464 534 25,000  Level Washington Center
Mon 10:49:06 AM 37.5972 -80.5486 15° North 464 534 25,000  Level Washington Center
Mon 10:50:04 AM 37.7242 -80.5069 15° North 464 534 25,000  Level Washington Center
Mon 10:51:04 AM 37.8636 -80.4633 14° North 464 534 25,000  Level Washington Center
Mon 10:52:04 AM 37.9906 -80.4217 15° North 464 534 25,000  Level Washington Center
Mon 10:53:05 AM 38.1175 -80.3769 15° North 464 534 25,000  Level Washington Center
Mon 10:54:06 AM 38.2419 -80.3375 14° North 464 534 25,000  Level Washington Center
Mon 10:55:06 AM 38.3667 -80.2950 15° North 459 528 25,000  Level Washington Center
Mon 10:56:03 AM 38.4789 -80.2544 16° North 464 534 25,000  Level Washington Center
Mon 10:57:04 AM 38.6014 -80.2117 15° North 464 534 25,000  Level Washington Center
Mon 10:58:04 AM 38.7261 -80.1714 14° North 459 528 25,000  Level Washington Center
Mon 11:00:21 AM 39.0069 -80.0114 24° Northeast 451 519 25,000  Level Cleveland Center
Mon 11:01:22 AM 39.1083 -79.9064 39° Northeast 457 526 25,000  Level Cleveland Center
Mon 11:02:21 AM 39.2078 -79.8036 39° Northeast 457 526 25,000  Level Cleveland Center
Mon 11:03:22 AM 39.3092 -79.6978 39° Northeast 462 532 25,000  Level Cleveland Center
Mon 11:04:22 AM 39.4125 -79.5944 38° Northeast 468 539 25,000  Level Cleveland Center
Mon 11:05:21 AM 39.5136 -79.4881 39° Northeast 468 539 25,000  Level Cleveland Center
Mon 11:06:22 AM 39.6147 -79.3839 38° Northeast 468 539 25,000  Level Cleveland Center
Mon 11:07:22 AM 39.7158 -79.2797 38° Northeast 468 539 25,000  Level Cleveland Center
Mon 11:08:21 AM 39.8167 -79.1694 40° Northeast 468 539 25,000  Level Cleveland Center
Mon 11:09:21 AM 39.9194 -79.0672 37° Northeast 468 539 25,000  Level Cleveland Center
Mon 11:10:21 AM 40.0200 -78.9564 40° Northeast 468 539 25,000  Level Cleveland Center
Mon 11:11:22 AM 40.1228 -78.8481 39° Northeast 467 537 25,000  Level Cleveland Center
Mon 11:12:21 AM 40.2253 -78.7422 38° Northeast 467 537 25,000  Level Cleveland Center
Mon 11:13:22 AM 40.3256 -78.6306 40° Northeast 467 537 25,000  Level Cleveland Center
Mon 11:14:21 AM 40.4300 -78.5211 39° Northeast 467 537 25,000  Level Cleveland Center
Mon 11:16:30 AM 40.6344 -78.3006 39° Northeast 465 535 25,000  Level New York Center
Mon 11:17:28 AM 40.7331 -78.1908 40° Northeast 465 535 25,000  Level New York Center
Mon 11:18:28 AM 40.8378 -78.0814 38° Northeast 465 535 25,000  Level New York Center
Mon 11:19:28 AM 40.9367 -77.9628 42° Northeast 465 535 25,000  Level New York Center
Mon 11:20:29 AM 41.0281 -77.8322 47° Northeast 472 543 25,000  Level New York Center
Mon 11:21:29 AM 41.1147 -77.7033 48° Northeast 472 543 25,000  Level New York Center
Mon 11:22:30 AM 41.2056 -77.5747 47° Northeast 477 549 25,000  Level New York Center
Mon 11:23:30 AM 41.3036 -77.4269 49° Northeast 482 555 25,000  Level New York Center
Mon 11:24:28 AM 41.3831 -77.3106 48° Northeast 476 548 25,000  Level New York Center
Mon 11:25:28 AM 41.4714 -77.1778 48° Northeast 476 548 25,000  Level New York Center
Mon 11:26:28 AM 41.5597 -77.0475 48° Northeast 481 554 25,000 -99 Level New York Center
Mon 11:27:29 AM 41.6478 -76.9169 48° Northeast 481 554 24,800 -496 Descending New York Center
Mon 11:28:29 AM 41.7333 -76.7886 48° Northeast 476 548 24,000 -397 Descending New York Center
Mon 11:29:30 AM 41.8192 -76.6544 49° Northeast 476 548 24,000  Level New York Center
Mon 11:30:28 AM 41.9025 -76.5253 49° Northeast 470 541 24,000  Level New York Center
Mon 11:31:29 AM 41.9903 -76.3933 48° Northeast 470 541 24,000  Level New York Center
Mon 11:32:29 AM 42.0775 -76.2611 48° Northeast 470 541 24,000  Level New York Center
Mon 11:34:37 AM 42.2322 -75.9231 58° Northeast 461 531 24,000  Level Boston Center
Mon 11:35:37 AM 42.2892 -75.7633 64° Northeast 462 532 24,000  Level Boston Center
Mon 11:36:37 AM 42.3417 -75.6089 65° Northeast 456 525 24,000  Level Boston Center
Mon 11:37:37 AM 42.3958 -75.4511 65° Northeast 456 525 24,000 -400 Level Boston Center
Mon 11:38:37 AM 42.4500 -75.2906 65° Northeast 456 525 23,200 -1,650 Descending Boston Center
Mon 11:39:37 AM 42.4917 -75.1264 71° East 456 525 20,700 -2,450 Descending Boston Center
Mon 11:40:37 AM 42.5078 -74.9664 82° East 448 516 18,300 -2,250 Descending Boston Center
Mon 11:41:37 AM 42.4986 -74.8083 94° East 419 482 16,200 -2,154 Descending Boston Center
Mon 11:41:55 AM 42.4975 -74.7578 92° East 404 465 15,500 -2,200 Descending Boston Center
Mon 11:42:37 AM 42.4931 -74.6703 94° East 412 474 14,000 -2,239 Descending Boston Center
Mon 11:43:02 AM 42.4925 -74.5997 91° East 393 452 13,000 -2,400 Descending Boston Center
Mon 11:43:37 AM 42.4900 -74.5125 92° East 394 453 11,600 -1,672 Descending Boston Center
Mon 11:44:03 AM 42.4867 -74.4617 95° East 376 433 11,300 -900 Descending Boston Center
Mon 11:44:37 AM 42.4961 -74.3914 80° East 365 420 10,700 -889 Descending Boston Center
Mon 11:44:57 AM 42.5136 -74.3497 60° Northeast 329 379 10,500 -1,000 Descending Boston Center
Mon 11:45:37 AM 42.5419 -74.2803 61° Northeast 319 367 9,700 -1,343 Descending Boston Center
Mon 11:46:04 AM 42.5614 -74.2356 59° Northeast 290 334 9,000 -1,500 Descending Boston Center
Mon 11:46:37 AM 42.5786 -74.1939 61° Northeast 293 337 8,200 -1,500 Descending Boston Center
Mon 11:47:04 AM 42.6022 -74.1411 59° Northeast 291 335 7,500 -1,500 Descending Boston Center
Mon 11:47:49 AM 42.6347 -74.0714 58° Northeast 288 331 6,400 -1,672 Descending Boston Center
Mon 11:48:05 AM 42.6536 -74.0606 23° Northeast 290 334 5,800 -1,800 Descending Boston Center
Mon 11:48:49 AM 42.7081 -74.0281 24° Northeast 274 315 4,600 -1,672 Descending Boston Center
Mon 11:49:06 AM 42.7292 -74.0172 21° North 291 335 4,100 -900 Descending Boston Center
Mon 11:49:49 AM 42.7794 -73.9903 21° North 274 315 3,700 -700 Descending Boston Center
Mon 11:50:06 AM 42.7986 -73.9794 23° Northeast 264 304 3,400 -700 Descending Boston Center
Mon 11:50:49 AM 42.8444 -73.9608 17° North 267 307 3,000 -537 Descending Boston Center
Mon 11:51:13 AM 42.8658 -73.9358 41° Northeast 238 274 2,800 -800 Descending Boston Center
Mon 11:51:49 AM 42.8728 -73.8822 80° East 225 259 2,200 -764 Descending Boston Center
Mon 11:52:08 AM 42.8750 -73.8594 82° East 205 236 2,100 -200 Descending Boston Center
Mon 11:52:49 AM 42.8650 -73.8308 115° Southeast 178 205 2,000 -364 Descending Boston Center
Mon 11:53:14 AM 42.8361 -73.8133 156° South 156 180 1,700 -525 Descending Boston Center
Mon 11:54:09 AM 42.8047 -73.8097 175° South 129 148 1,300 -600 Descending Boston Center
Mon 11:55:04 AM 42.7694 -73.8089 179° South 124 143 600 -764 Descending Boston Center

Login

Don't have an account? Register now (free) for customized features, flight alerts, and more!